sensor_id;sensor_type;location;lat;lon;timestamp;temperature;humidity
26479;DHT22;14163;-26.142;27.992;2023-04-03T02:06:24;17.70;99.90
26479;DHT22;14163;-26.142;27.992;2023-04-03T02:08:54;17.90;99.90
26479;DHT22;14163;-26.142;27.992;2023-04-03T02:11:23;18.60;99.90
26479;DHT22;14163;-26.142;27.992;2023-04-03T02:13:52;19.30;99.90
26479;DHT22;14163;-26.142;27.992;2023-04-03T02:16:21;20.00;99.90
26479;DHT22;14163;-26.142;27.992;2023-04-03T02:18:51;20.50;99.90
26479;DHT22;14163;-26.142;27.992;2023-04-03T02:21:20;21.00;99.90
26479;DHT22;14163;-26.142;27.992;2023-04-03T02:23:51;21.40;99.90
26479;DHT22;14163;-26.142;27.992;2023-04-03T02:26:20;21.70;99.90
26479;DHT22;14163;-26.142;27.992;2023-04-03T02:28:49;21.80;99.90
26479;DHT22;14163;-26.142;27.992;2023-04-03T02:31:18;22.00;99.90
26479;DHT22;14163;-26.142;27.992;2023-04-03T02:33:47;22.10;99.90
26479;DHT22;14163;-26.142;27.992;2023-04-03T02:36:17;22.20;99.90
26479;DHT22;14163;-26.142;27.992;2023-04-03T02:38:46;22.20;99.90
26479;DHT22;14163;-26.142;27.992;2023-04-03T02:41:17;22.30;99.90
26479;DHT22;14163;-26.142;27.992;2023-04-03T02:43:47;22.30;99.90
26479;DHT22;14163;-26.142;27.992;2023-04-03T02:46:17;22.40;99.90
26479;DHT22;14163;-26.142;27.992;2023-04-03T02:48:46;22.40;99.90
26479;DHT22;14163;-26.142;27.992;2023-04-03T02:51:15;22.50;99.90
26479;DHT22;14163;-26.142;27.992;2023-04-03T02:53:44;22.50;99.90
26479;DHT22;14163;-26.142;27.992;2023-04-03T02:56:13;22.50;99.90
26479;DHT22;14163;-26.142;27.992;2023-04-03T02:58:45;22.40;99.90
26479;DHT22;14163;-26.142;27.992;2023-04-03T03:01:15;22.30;99.90
26479;DHT22;14163;-26.142;27.992;2023-04-03T03:03:44;22.20;99.90
26479;DHT22;14163;-26.142;27.992;2023-04-03T03:06:15;22.00;99.90
26479;DHT22;14163;-26.142;27.992;2023-04-03T03:08:44;21.30;99.90
26479;DHT22;14163;-26.142;27.992;2023-04-03T03:11:14;21.20;99.90
26479;DHT22;14163;-26.142;27.992;2023-04-03T03:13:44;21.10;99.90
26479;DHT22;14163;-26.142;27.992;2023-04-03T03:16:14;20.80;99.90
26479;DHT22;14163;-26.142;27.992;2023-04-03T03:18:43;20.40;99.90
26479;DHT22;14163;-26.142;27.992;2023-04-03T03:21:15;20.30;99.90
26479;DHT22;14163;-26.142;27.992;2023-04-03T03:23:44;20.30;99.90
26479;DHT22;14163;-26.142;27.992;2023-04-03T03:26:13;20.20;99.90
26479;DHT22;14163;-26.142;27.992;2023-04-03T03:28:44;19.80;99.90
26479;DHT22;14163;-26.142;27.992;2023-04-03T03:31:13;19.90;99.90
26479;DHT22;14163;-26.142;27.992;2023-04-03T03:33:42;19.90;99.90
26479;DHT22;14163;-26.142;27.992;2023-04-03T03:36:11;20.00;99.90
26479;DHT22;14163;-26.142;27.992;2023-04-03T03:38:41;20.40;99.90
26479;DHT22;14163;-26.142;27.992;2023-04-03T03:41:10;20.40;99.90
26479;DHT22;14163;-26.142;27.992;2023-04-03T03:43:39;20.30;99.90
26479;DHT22;14163;-26.142;27.992;2023-04-03T03:46:10;20.30;99.90
26479;DHT22;14163;-26.142;27.992;2023-04-03T03:48:39;20.60;99.90
26479;DHT22;14163;-26.142;27.992;2023-04-03T03:51:08;20.90;99.90
26479;DHT22;14163;-26.142;27.992;2023-04-03T03:53:37;21.10;99.90
26479;DHT22;14163;-26.142;27.992;2023-04-03T03:56:07;21.10;99.90
26479;DHT22;14163;-26.142;27.992;2023-04-03T03:58:37;21.10;99.90
26479;DHT22;14163;-26.142;27.992;2023-04-03T04:01:08;21.10;99.90
26479;DHT22;14163;-26.142;27.992;2023-04-03T04:03:37;21.20;99.90
26479;DHT22;14163;-26.142;27.992;2023-04-03T04:06:07;20.90;99.90
26479;DHT22;14163;-26.142;27.992;2023-04-03T04:08:36;20.90;99.90
26479;DHT22;14163;-26.142;27.992;2023-04-03T04:11:05;21.00;99.90
26479;DHT22;14163;-26.142;27.992;2023-04-03T04:13:36;20.90;99.90
26479;DHT22;14163;-26.142;27.992;2023-04-03T04:16:06;20.80;99.90
26479;DHT22;14163;-26.142;27.992;2023-04-03T04:18:37;20.80;99.90
26479;DHT22;14163;-26.142;27.992;2023-04-03T04:21:06;20.80;99.90
26479;DHT22;14163;-26.142;27.992;2023-04-03T04:23:35;20.50;99.90
26479;DHT22;14163;-26.142;27.992;2023-04-03T04:26:04;20.40;99.90
26479;DHT22;14163;-26.142;27.992;2023-04-03T04:28:33;20.60;99.90
26479;DHT22;14163;-26.142;27.992;2023-04-03T04:31:03;20.80;99.90
26479;DHT22;14163;-26.142;27.992;2023-04-03T04:33:32;21.00;99.90
26479;DHT22;14163;-26.142;27.992;2023-04-03T04:36:03;21.10;99.90
26479;DHT22;14163;-26.142;27.992;2023-04-03T04:38:32;21.00;99.90
26479;DHT22;14163;-26.142;27.992;2023-04-03T04:41:02;21.20;99.90
26479;DHT22;14163;-26.142;27.992;2023-04-03T04:43:31;21.40;99.90
26479;DHT22;14163;-26.142;27.992;2023-04-03T04:46:05;21.50;99.90
26479;DHT22;14163;-26.142;27.992;2023-04-03T04:48:35;21.60;99.90
26479;DHT22;14163;-26.142;27.992;2023-04-03T04:51:06;21.60;99.90
26479;DHT22;14163;-26.142;27.992;2023-04-03T04:53:35;21.60;99.90
26479;DHT22;14163;-26.142;27.992;2023-04-03T04:56:05;21.40;99.90
26479;DHT22;14163;-26.142;27.992;2023-04-03T04:58:35;21.50;99.90
26479;DHT22;14163;-26.142;27.992;2023-04-03T05:01:06;21.60;99.90
26479;DHT22;14163;-26.142;27.992;2023-04-03T05:03:35;21.70;99.90
26479;DHT22;14163;-26.142;27.992;2023-04-03T05:06:07;21.70;99.90
26479;DHT22;14163;-26.142;27.992;2023-04-03T05:08:36;21.70;99.90
26479;DHT22;14163;-26.142;27.992;2023-04-03T05:11:06;21.70;99.90
26479;DHT22;14163;-26.142;27.992;2023-04-03T05:13:35;21.80;99.90
26479;DHT22;14163;-26.142;27.992;2023-04-03T05:16:05;21.80;99.90
26479;DHT22;14163;-26.142;27.992;2023-04-03T05:18:34;21.40;99.90
26479;DHT22;14163;-26.142;27.992;2023-04-03T05:21:05;21.10;99.90
26479;DHT22;14163;-26.142;27.992;2023-04-03T05:23:34;20.90;99.90
26479;DHT22;14163;-26.142;27.992;2023-04-03T05:26:03;20.70;99.90
26479;DHT22;14163;-26.142;27.992;2023-04-03T05:28:32;20.50;99.90
26479;DHT22;14163;-26.142;27.992;2023-04-03T05:31:03;20.60;99.90
26479;DHT22;14163;-26.142;27.992;2023-04-03T05:33:33;20.50;99.90
26479;DHT22;14163;-26.142;27.992;2023-04-03T05:36:03;20.70;99.90
26479;DHT22;14163;-26.142;27.992;2023-04-03T05:38:34;20.80;99.90
26479;DHT22;14163;-26.142;27.992;2023-04-03T05:41:03;21.00;99.90
26479;DHT22;14163;-26.142;27.992;2023-04-03T05:43:33;21.00;99.90
26479;DHT22;14163;-26.142;27.992;2023-04-03T05:46:04;21.00;99.90
26479;DHT22;14163;-26.142;27.992;2023-04-03T05:48:35;21.10;99.90
26479;DHT22;14163;-26.142;27.992;2023-04-03T05:51:05;21.00;99.90
26479;DHT22;14163;-26.142;27.992;2023-04-03T05:53:37;20.60;99.90
26479;DHT22;14163;-26.142;27.992;2023-04-03T05:56:06;20.40;99.90
26479;DHT22;14163;-26.142;27.992;2023-04-03T05:58:35;20.30;99.90
26479;DHT22;14163;-26.142;27.992;2023-04-03T06:01:05;20.20;99.90
26479;DHT22;14163;-26.142;27.992;2023-04-03T06:03:34;20.50;99.90
26479;DHT22;14163;-26.142;27.992;2023-04-03T06:06:04;20.70;99.90
26479;DHT22;14163;-26.142;27.992;2023-04-03T06:08:36;21.00;99.90
26479;DHT22;14163;-26.142;27.992;2023-04-03T06:11:05;21.20;99.90
26479;DHT22;14163;-26.142;27.992;2023-04-03T06:13:35;21.00;99.90
26479;DHT22;14163;-26.142;27.992;2023-04-03T06:16:05;20.80;99.90
26479;DHT22;14163;-26.142;27.992;2023-04-03T06:18:36;20.70;99.90
26479;DHT22;14163;-26.142;27.992;2023-04-03T06:21:05;20.90;99.90
26479;DHT22;14163;-26.142;27.992;2023-04-03T06:23:36;21.10;99.90
26479;DHT22;14163;-26.142;27.992;2023-04-03T06:26:05;21.00;99.90
26479;DHT22;14163;-26.142;27.992;2023-04-03T06:28:34;21.00;99.90
26479;DHT22;14163;-26.142;27.992;2023-04-03T06:31:04;20.90;99.90
26479;DHT22;14163;-26.142;27.992;2023-04-03T06:33:33;20.80;99.90
26479;DHT22;14163;-26.142;27.992;2023-04-03T06:36:05;20.90;99.90
26479;DHT22;14163;-26.142;27.992;2023-04-03T06:38:36;20.80;99.90
26479;DHT22;14163;-26.142;27.992;2023-04-03T06:41:05;20.90;99.90
26479;DHT22;14163;-26.142;27.992;2023-04-03T06:43:34;20.90;99.90
26479;DHT22;14163;-26.142;27.992;2023-04-03T06:46:04;21.00;99.90
26479;DHT22;14163;-26.142;27.992;2023-04-03T06:48:33;21.00;99.90
26479;DHT22;14163;-26.142;27.992;2023-04-03T06:51:03;20.90;99.90
26479;DHT22;14163;-26.142;27.992;2023-04-03T06:53:32;20.90;99.90
26479;DHT22;14163;-26.142;27.992;2023-04-03T06:56:03;21.20;99.90
26479;DHT22;14163;-26.142;27.992;2023-04-03T06:58:32;21.30;99.90
26479;DHT22;14163;-26.142;27.992;2023-04-03T07:01:02;21.30;99.90
26479;DHT22;14163;-26.142;27.992;2023-04-03T07:03:31;21.00;99.90
26479;DHT22;14163;-26.142;27.992;2023-04-03T07:06:00;21.10;99.90
26479;DHT22;14163;-26.142;27.992;2023-04-03T07:08:29;21.20;99.90
26479;DHT22;14163;-26.142;27.992;2023-04-03T07:10:58;21.30;99.90
26479;DHT22;14163;-26.142;27.992;2023-04-03T07:13:29;21.40;99.90
26479;DHT22;14163;-26.142;27.992;2023-04-03T07:15:59;21.60;99.90
26479;DHT22;14163;-26.142;27.992;2023-04-03T07:18:29;21.70;99.90
26479;DHT22;14163;-26.142;27.992;2023-04-03T07:20:58;21.70;99.90
26479;DHT22;14163;-26.142;27.992;2023-04-03T07:23:27;21.70;99.90
26479;DHT22;14163;-26.142;27.992;2023-04-03T07:25:57;21.70;99.90
26479;DHT22;14163;-26.142;27.992;2023-04-03T07:28:26;21.40;99.90
26479;DHT22;14163;-26.142;27.992;2023-04-03T07:31:01;21.20;99.90
26479;DHT22;14163;-26.142;27.992;2023-04-03T07:33:31;21.00;99.90
26479;DHT22;14163;-26.142;27.992;2023-04-03T07:36:00;21.30;99.90
26479;DHT22;14163;-26.142;27.992;2023-04-03T07:38:30;21.40;99.90
26479;DHT22;14163;-26.142;27.992;2023-04-03T07:40:59;21.30;99.90
26479;DHT22;14163;-26.142;27.992;2023-04-03T07:43:28;20.90;99.90
26479;DHT22;14163;-26.142;27.992;2023-04-03T07:45:59;21.00;99.90
26479;DHT22;14163;-26.142;27.992;2023-04-03T07:48:29;20.80;99.90
26479;DHT22;14163;-26.142;27.992;2023-04-03T07:51:00;20.80;99.90
26479;DHT22;14163;-26.142;27.992;2023-04-03T07:53:31;21.20;99.90
26479;DHT22;14163;-26.142;27.992;2023-04-03T07:56:00;21.50;99.90
26479;DHT22;14163;-26.142;27.992;2023-04-03T07:58:30;21.40;99.90
26479;DHT22;14163;-26.142;27.992;2023-04-03T08:01:01;21.40;99.90
26479;DHT22;14163;-26.142;27.992;2023-04-03T08:03:30;21.50;99.90
26479;DHT22;14163;-26.142;27.992;2023-04-03T08:06:03;21.30;99.90
26479;DHT22;14163;-26.142;27.992;2023-04-03T10:17:13;21.70;99.90
26479;DHT22;14163;-26.142;27.992;2023-04-03T10:19:48;21.30;99.90
26479;DHT22;14163;-26.142;27.992;2023-04-03T10:22:26;22.00;99.90
26479;DHT22;14163;-26.142;27.992;2023-04-03T10:25:04;22.80;99.90
26479;DHT22;14163;-26.142;27.992;2023-04-03T10:27:53;23.70;99.90
26479;DHT22;14163;-26.142;27.992;2023-04-03T10:30:35;23.90;99.90
26479;DHT22;14163;-26.142;27.992;2023-04-03T10:36:21;24.70;99.90
26479;DHT22;14163;-26.142;27.992;2023-04-03T10:39:00;25.20;99.90
26479;DHT22;14163;-26.142;27.992;2023-04-03T10:41:39;25.80;99.90
26479;DHT22;14163;-26.142;27.992;2023-04-03T10:44:18;26.60;99.90
26479;DHT22;14163;-26.142;27.992;2023-04-03T10:46:51;26.10;99.90
26479;DHT22;14163;-26.142;27.992;2023-04-03T10:49:39;26.50;99.90
26479;DHT22;14163;-26.142;27.992;2023-04-03T10:52:20;26.90;99.90
26479;DHT22;14163;-26.142;27.992;2023-04-03T10:55:00;27.10;99.90
26479;DHT22;14163;-26.142;27.992;2023-04-03T10:57:31;27.80;99.90
26479;DHT22;14163;-26.142;27.992;2023-04-03T11:00:02;27.80;99.90
26479;DHT22;14163;-26.142;27.992;2023-04-03T11:02:37;27.50;99.90
26479;DHT22;14163;-26.142;27.992;2023-04-03T11:05:18;27.20;99.90
26479;DHT22;14163;-26.142;27.992;2023-04-03T11:07:54;27.30;99.90
26479;DHT22;14163;-26.142;27.992;2023-04-03T11:10:35;27.30;99.90
26479;DHT22;14163;-26.142;27.992;2023-04-03T11:13:10;27.80;99.90
26479;DHT22;14163;-26.142;27.992;2023-04-03T11:15:43;27.80;99.90
26479;DHT22;14163;-26.142;27.992;2023-04-03T11:18:17;27.90;99.90
26479;DHT22;14163;-26.142;27.992;2023-04-03T11:20:53;27.90;99.90
26479;DHT22;14163;-26.142;27.992;2023-04-03T11:23:30;28.10;99.90
26479;DHT22;14163;-26.142;27.992;2023-04-03T11:26:08;28.80;99.90
26479;DHT22;14163;-26.142;27.992;2023-04-03T11:28:38;29.30;99.90
26479;DHT22;14163;-26.142;27.992;2023-04-03T11:31:22;29.20;99.90
26479;DHT22;14163;-26.142;27.992;2023-04-03T11:34:03;29.80;99.90
26479;DHT22;14163;-26.142;27.992;2023-04-03T11:36:40;30.70;99.90
26479;DHT22;14163;-26.142;27.992;2023-04-03T11:39:20;30.60;99.90
26479;DHT22;14163;-26.142;27.992;2023-04-03T11:41:51;31.00;99.90
26479;DHT22;14163;-26.142;27.992;2023-04-03T11:44:34;30.60;99.90
26479;DHT22;14163;-26.142;27.992;2023-04-03T11:47:05;30.00;99.90
26479;DHT22;14163;-26.142;27.992;2023-04-03T11:49:55;29.70;99.90
26479;DHT22;14163;-26.142;27.992;2023-04-03T11:52:59;29.50;99.90
26479;DHT22;14163;-26.142;27.992;2023-04-03T11:56:26;29.70;99.90
26479;DHT22;14163;-26.142;27.992;2023-04-03T11:59:23;29.50;99.90
26479;DHT22;14163;-26.142;27.992;2023-04-03T12:01:53;29.80;99.90
26479;DHT22;14163;-26.142;27.992;2023-04-03T12:04:24;29.80;99.90
26479;DHT22;14163;-26.142;27.992;2023-04-03T12:09:59;29.80;99.90
26479;DHT22;14163;-26.142;27.992;2023-04-03T12:12:37;29.80;99.90
26479;DHT22;14163;-26.142;27.992;2023-04-03T12:21:19;29.00;99.90
26479;DHT22;14163;-26.142;27.992;2023-04-03T12:24:02;28.90;99.90
26479;DHT22;14163;-26.142;27.992;2023-04-03T12:26:40;28.50;99.90
26479;DHT22;14163;-26.142;27.992;2023-04-03T12:29:17;27.70;99.90
26479;DHT22;14163;-26.142;27.992;2023-04-03T12:31:56;28.00;99.90
26479;DHT22;14163;-26.142;27.992;2023-04-03T12:34:48;28.30;99.90
26479;DHT22;14163;-26.142;27.992;2023-04-03T12:37:32;27.80;99.90
26479;DHT22;14163;-26.142;27.992;2023-04-03T12:40:15;28.10;99.90
26479;DHT22;14163;-26.142;27.992;2023-04-03T12:43:15;29.00;99.90
26479;DHT22;14163;-26.142;27.992;2023-04-03T12:45:51;29.20;99.90
26479;DHT22;14163;-26.142;27.992;2023-04-03T12:48:25;29.00;99.90
26479;DHT22;14163;-26.142;27.992;2023-04-03T12:50:56;29.30;99.90
26479;DHT22;14163;-26.142;27.992;2023-04-03T12:53:27;29.30;99.90
26479;DHT22;14163;-26.142;27.992;2023-04-03T12:55:58;28.30;99.90
26479;DHT22;14163;-26.142;27.992;2023-04-03T12:58:47;27.60;99.90
26479;DHT22;14163;-26.142;27.992;2023-04-03T13:01:21;27.20;99.90
26479;DHT22;14163;-26.142;27.992;2023-04-03T13:03:53;27.20;99.90
26479;DHT22;14163;-26.142;27.992;2023-04-03T13:06:25;27.40;99.90
26479;DHT22;14163;-26.142;27.992;2023-04-03T13:08:56;27.40;99.90
26479;DHT22;14163;-26.142;27.992;2023-04-03T13:11:27;27.30;99.90
26479;DHT22;14163;-26.142;27.992;2023-04-03T13:14:00;27.10;99.90
26479;DHT22;14163;-26.142;27.992;2023-04-03T13:16:33;27.40;99.90
26479;DHT22;14163;-26.142;27.992;2023-04-03T13:19:02;27.30;99.90
26479;DHT22;14163;-26.142;27.992;2023-04-03T13:21:32;27.00;99.90
26479;DHT22;14163;-26.142;27.992;2023-04-03T13:24:03;27.10;99.90
26479;DHT22;14163;-26.142;27.992;2023-04-03T13:26:33;26.80;99.90
26479;DHT22;14163;-26.142;27.992;2023-04-03T13:29:16;27.00;99.90
26479;DHT22;14163;-26.142;27.992;2023-04-03T13:31:53;27.20;99.90
26479;DHT22;14163;-26.142;27.992;2023-04-03T13:34:24;27.50;99.90
26479;DHT22;14163;-26.142;27.992;2023-04-03T13:36:58;27.30;99.90
26479;DHT22;14163;-26.142;27.992;2023-04-03T13:39:29;27.50;99.90
26479;DHT22;14163;-26.142;27.992;2023-04-03T13:42:00;27.30;99.90
26479;DHT22;14163;-26.142;27.992;2023-04-03T13:44:33;27.10;99.90
26479;DHT22;14163;-26.142;27.992;2023-04-03T13:47:18;26.70;99.90
26479;DHT22;14163;-26.142;27.992;2023-04-03T13:50:00;26.90;99.90
26479;DHT22;14163;-26.142;27.992;2023-04-03T13:52:32;27.00;99.90
26479;DHT22;14163;-26.142;27.992;2023-04-03T13:55:15;27.30;99.90
26479;DHT22;14163;-26.142;27.992;2023-04-03T13:57:56;27.40;99.90
26479;DHT22;14163;-26.142;27.992;2023-04-03T14:00:34;27.40;99.90
26479;DHT22;14163;-26.142;27.992;2023-04-03T14:03:13;27.40;99.90
26479;DHT22;14163;-26.142;27.992;2023-04-03T14:05:42;27.10;99.90
26479;DHT22;14163;-26.142;27.992;2023-04-03T14:08:12;27.20;99.90
26479;DHT22;14163;-26.142;27.992;2023-04-03T14:10:41;27.30;99.90
26479;DHT22;14163;-26.142;27.992;2023-04-03T14:13:13;27.40;99.90
26479;DHT22;14163;-26.142;27.992;2023-04-03T14:15:42;27.50;99.90
26479;DHT22;14163;-26.142;27.992;2023-04-03T14:18:15;27.30;99.90
26479;DHT22;14163;-26.142;27.992;2023-04-03T14:20:45;27.10;99.90
26479;DHT22;14163;-26.142;27.992;2023-04-03T14:23:14;27.10;99.90
26479;DHT22;14163;-26.142;27.992;2023-04-03T14:25:44;27.00;99.90
26479;DHT22;14163;-26.142;27.992;2023-04-03T14:28:17;27.00;99.90
26479;DHT22;14163;-26.142;27.992;2023-04-03T14:30:48;26.90;99.90
26479;DHT22;14163;-26.142;27.992;2023-04-03T14:33:21;26.90;99.90
26479;DHT22;14163;-26.142;27.992;2023-04-03T14:35:50;26.80;99.90
26479;DHT22;14163;-26.142;27.992;2023-04-03T14:38:25;26.90;99.90
26479;DHT22;14163;-26.142;27.992;2023-04-03T14:40:55;27.20;99.90
26479;DHT22;14163;-26.142;27.992;2023-04-03T14:43:24;27.40;99.90
26479;DHT22;14163;-26.142;27.992;2023-04-03T14:45:54;27.30;99.90
26479;DHT22;14163;-26.142;27.992;2023-04-03T14:48:27;27.10;99.90
26479;DHT22;14163;-26.142;27.992;2023-04-03T14:50:57;26.60;99.90
26479;DHT22;14163;-26.142;27.992;2023-04-03T14:53:26;26.30;99.90
26479;DHT22;14163;-26.142;27.992;2023-04-03T14:55:56;26.00;99.90
26479;DHT22;14163;-26.142;27.992;2023-04-03T14:58:26;26.10;99.90
26479;DHT22;14163;-26.142;27.992;2023-04-03T15:00:55;26.40;99.90
26479;DHT22;14163;-26.142;27.992;2023-04-03T15:03:26;26.70;99.90
26479;DHT22;14163;-26.142;27.992;2023-04-03T15:05:56;26.80;99.90
26479;DHT22;14163;-26.142;27.992;2023-04-03T15:08:26;27.10;99.90
26479;DHT22;14163;-26.142;27.992;2023-04-03T15:10:57;27.10;99.90
26479;DHT22;14163;-26.142;27.992;2023-04-03T15:13:27;26.40;99.90
26479;DHT22;14163;-26.142;27.992;2023-04-03T15:15:57;26.10;99.90
26479;DHT22;14163;-26.142;27.992;2023-04-03T15:18:28;25.80;99.90
26479;DHT22;14163;-26.142;27.992;2023-04-03T15:20:59;25.80;99.90
26479;DHT22;14163;-26.142;27.992;2023-04-03T15:23:28;25.90;99.90
26479;DHT22;14163;-26.142;27.992;2023-04-03T15:25:59;26.10;99.90
26479;DHT22;14163;-26.142;27.992;2023-04-03T15:28:30;26.10;99.90
26479;DHT22;14163;-26.142;27.992;2023-04-03T15:30:59;25.80;99.90
26479;DHT22;14163;-26.142;27.992;2023-04-03T15:33:31;25.80;99.90
26479;DHT22;14163;-26.142;27.992;2023-04-03T15:36:00;25.70;99.90
26479;DHT22;14163;-26.142;27.992;2023-04-03T15:38:29;25.50;99.90
26479;DHT22;14163;-26.142;27.992;2023-04-03T15:40:59;25.80;99.90
26479;DHT22;14163;-26.142;27.992;2023-04-03T15:43:28;26.00;99.90
26479;DHT22;14163;-26.142;27.992;2023-04-03T15:45:59;26.00;99.90
26479;DHT22;14163;-26.142;27.992;2023-04-03T15:48:30;26.20;99.90
26479;DHT22;14163;-26.142;27.992;2023-04-03T15:51:00;26.20;99.90
26479;DHT22;14163;-26.142;27.992;2023-04-03T15:53:29;26.10;99.90
26479;DHT22;14163;-26.142;27.992;2023-04-03T15:55:59;25.80;99.90
26479;DHT22;14163;-26.142;27.992;2023-04-03T15:58:28;25.70;99.90
26479;DHT22;14163;-26.142;27.992;2023-04-03T18:03:56;21.60;99.90
26479;DHT22;14163;-26.142;27.992;2023-04-03T18:06:27;19.10;99.90
26479;DHT22;14163;-26.142;27.992;2023-04-03T18:09:02;19.80;99.90
26479;DHT22;14163;-26.142;27.992;2023-04-03T18:11:32;20.70;99.90
26479;DHT22;14163;-26.142;27.992;2023-04-03T18:14:02;21.30;99.90
26479;DHT22;14163;-26.142;27.992;2023-04-03T18:16:32;21.90;99.90
26479;DHT22;14163;-26.142;27.992;2023-04-03T18:19:03;22.30;99.90
26479;DHT22;14163;-26.142;27.992;2023-04-03T18:21:34;22.60;99.90
26479;DHT22;14163;-26.142;27.992;2023-04-03T18:24:06;22.80;99.90
26479;DHT22;14163;-26.142;27.992;2023-04-03T18:27:04;22.90;99.90
26479;DHT22;14163;-26.142;27.992;2023-04-03T18:29:35;23.10;99.90
26479;DHT22;14163;-26.142;27.992;2023-04-03T18:32:07;23.20;99.90
26479;DHT22;14163;-26.142;27.992;2023-04-03T18:34:52;23.20;99.90
26479;DHT22;14163;-26.142;27.992;2023-04-03T18:37:21;23.20;99.90
26479;DHT22;14163;-26.142;27.992;2023-04-03T18:39:52;23.20;99.90
26479;DHT22;14163;-26.142;27.992;2023-04-03T18:42:23;23.30;99.90
26479;DHT22;14163;-26.142;27.992;2023-04-03T18:44:55;23.30;99.90
26479;DHT22;14163;-26.142;27.992;2023-04-03T18:47:27;23.20;99.90
26479;DHT22;14163;-26.142;27.992;2023-04-03T18:49:58;23.20;99.90
26479;DHT22;14163;-26.142;27.992;2023-04-03T18:52:27;23.20;99.90
26479;DHT22;14163;-26.142;27.992;2023-04-03T18:54:57;23.20;99.90
26479;DHT22;14163;-26.142;27.992;2023-04-03T18:57:26;23.00;99.90
26479;DHT22;14163;-26.142;27.992;2023-04-03T18:59:56;22.90;99.90
26479;DHT22;14163;-26.142;27.992;2023-04-03T19:02:25;22.80;99.90
26479;DHT22;14163;-26.142;27.992;2023-04-03T19:04:54;22.70;99.90
26479;DHT22;14163;-26.142;27.992;2023-04-03T19:07:26;22.60;99.90
26479;DHT22;14163;-26.142;27.992;2023-04-03T19:09:55;22.50;99.90
26479;DHT22;14163;-26.142;27.992;2023-04-03T19:12:25;22.40;99.90
26479;DHT22;14163;-26.142;27.992;2023-04-03T19:14:54;22.40;99.90
26479;DHT22;14163;-26.142;27.992;2023-04-03T19:17:23;22.40;99.90
26479;DHT22;14163;-26.142;27.992;2023-04-03T19:19:54;22.40;99.90
26479;DHT22;14163;-26.142;27.992;2023-04-03T19:22:27;22.50;99.90
26479;DHT22;14163;-26.142;27.992;2023-04-03T19:24:56;22.40;99.90
26479;DHT22;14163;-26.142;27.992;2023-04-03T19:27:25;22.40;99.90
26479;DHT22;14163;-26.142;27.992;2023-04-03T19:29:55;22.40;99.90
26479;DHT22;14163;-26.142;27.992;2023-04-03T19:32:24;21.80;99.90
26479;DHT22;14163;-26.142;27.992;2023-04-03T19:34:55;21.20;99.90
26479;DHT22;14163;-26.142;27.992;2023-04-03T19:37:27;21.30;99.90
26479;DHT22;14163;-26.142;27.992;2023-04-03T19:39:57;21.40;99.90
26479;DHT22;14163;-26.142;27.992;2023-04-03T19:42:27;21.60;99.90
26479;DHT22;14163;-26.142;27.992;2023-04-03T19:44:57;21.60;99.90
26479;DHT22;14163;-26.142;27.992;2023-04-03T19:47:26;21.70;99.90
26479;DHT22;14163;-26.142;27.992;2023-04-03T19:49:56;21.80;99.90
26479;DHT22;14163;-26.142;27.992;2023-04-03T19:52:27;21.90;99.90
26479;DHT22;14163;-26.142;27.992;2023-04-03T19:54:56;21.90;99.90
26479;DHT22;14163;-26.142;27.992;2023-04-03T19:57:25;22.00;99.90
26479;DHT22;14163;-26.142;27.992;2023-04-03T19:59:55;22.00;99.90
26479;DHT22;14163;-26.142;27.992;2023-04-03T20:02:24;22.00;99.90
26479;DHT22;14163;-26.142;27.992;2023-04-03T20:04:53;22.10;99.90
26479;DHT22;14163;-26.142;27.992;2023-04-03T20:07:22;22.00;99.90
26479;DHT22;14163;-26.142;27.992;2023-04-03T20:09:54;22.10;99.90
26479;DHT22;14163;-26.142;27.992;2023-04-03T20:12:23;22.20;99.90
26479;DHT22;14163;-26.142;27.992;2023-04-03T20:14:53;22.20;99.90
26479;DHT22;14163;-26.142;27.992;2023-04-03T20:17:24;22.30;99.90
26479;DHT22;14163;-26.142;27.992;2023-04-03T20:19:53;22.30;99.90
26479;DHT22;14163;-26.142;27.992;2023-04-03T20:22:27;22.30;99.90
26479;DHT22;14163;-26.142;27.992;2023-04-03T20:25:00;22.30;99.90
26479;DHT22;14163;-26.142;27.992;2023-04-03T20:27:30;22.30;99.90
26479;DHT22;14163;-26.142;27.992;2023-04-03T20:29:59;22.40;99.90
26479;DHT22;14163;-26.142;27.992;2023-04-03T20:32:28;22.40;99.90
26479;DHT22;14163;-26.142;27.992;2023-04-03T20:34:57;22.40;99.90
26479;DHT22;14163;-26.142;27.992;2023-04-03T20:37:27;22.40;99.90
26479;DHT22;14163;-26.142;27.992;2023-04-03T20:39:59;22.40;99.90
26479;DHT22;14163;-26.142;27.992;2023-04-03T20:42:28;22.30;99.90
26479;DHT22;14163;-26.142;27.992;2023-04-03T20:44:57;22.30;99.90
26479;DHT22;14163;-26.142;27.992;2023-04-03T20:47:26;22.30;99.90
26479;DHT22;14163;-26.142;27.992;2023-04-03T20:49:55;22.40;99.90
26479;DHT22;14163;-26.142;27.992;2023-04-03T20:52:25;22.40;99.90
26479;DHT22;14163;-26.142;27.992;2023-04-03T20:54:54;22.40;99.90
26479;DHT22;14163;-26.142;27.992;2023-04-03T20:57:25;22.40;99.90
26479;DHT22;14163;-26.142;27.992;2023-04-03T20:59:54;22.30;99.90
26479;DHT22;14163;-26.142;27.992;2023-04-03T21:02:26;22.30;99.90
26479;DHT22;14163;-26.142;27.992;2023-04-03T21:04:56;22.30;99.90
26479;DHT22;14163;-26.142;27.992;2023-04-03T21:19:20;22.10;99.90
26479;DHT22;14163;-26.142;27.992;2023-04-03T21:21:49;22.00;99.90
26479;DHT22;14163;-26.142;27.992;2023-04-03T21:24:19;22.00;99.90
26479;DHT22;14163;-26.142;27.992;2023-04-03T21:26:49;22.00;99.90
26479;DHT22;14163;-26.142;27.992;2023-04-03T21:29:18;22.10;99.90
26479;DHT22;14163;-26.142;27.992;2023-04-03T21:31:48;22.10;99.90
26479;DHT22;14163;-26.142;27.992;2023-04-03T21:34:22;22.10;99.90
26479;DHT22;14163;-26.142;27.992;2023-04-03T21:36:52;22.00;99.90
26479;DHT22;14163;-26.142;27.992;2023-04-03T21:39:22;22.00;99.90
26479;DHT22;14163;-26.142;27.992;2023-04-03T21:41:51;22.10;99.90
26479;DHT22;14163;-26.142;27.992;2023-04-03T21:44:21;22.00;99.90
26479;DHT22;14163;-26.142;27.992;2023-04-03T21:46:50;22.00;99.90
26479;DHT22;14163;-26.142;27.992;2023-04-03T21:49:23;22.00;99.90
26479;DHT22;14163;-26.142;27.992;2023-04-03T21:51:53;21.90;99.90
26479;DHT22;14163;-26.142;27.992;2023-04-03T21:54:24;21.90;99.90
26479;DHT22;14163;-26.142;27.992;2023-04-03T21:56:53;21.90;99.90
26479;DHT22;14163;-26.142;27.992;2023-04-03T21:59:23;21.80;99.90
26479;DHT22;14163;-26.142;27.992;2023-04-03T22:01:53;21.80;99.90
26479;DHT22;14163;-26.142;27.992;2023-04-03T22:04:24;21.80;99.90
26479;DHT22;14163;-26.142;27.992;2023-04-03T22:06:54;21.80;99.90
26479;DHT22;14163;-26.142;27.992;2023-04-03T22:09:23;21.80;99.90
26479;DHT22;14163;-26.142;27.992;2023-04-03T22:11:53;21.80;99.90